Time;durP1;ratioP1;P1;durP2;ratioP2;P2;SDS_P1;SDS_P2;PMS_P1;PMS_P2;Temp;Humidity;BMP_temperature;BMP_pressure;BME280_temperature;BME280_humidity;BME280_pressure;Samples;Min_cycle;Max_cycle;Signal;HPM_P1;HPM_P2
2022/06/01 00:00:44;;;;;;;3.50;3.10;;;12.00;99.90;;;;;;5029204;23;21158;-77
2022/06/01 00:03:11;;;;;;;3.80;3.50;;;12.00;99.90;;;;;;5032632;28;20441;-76
2022/06/01 00:05:38;;;;;;;4.17;3.77;;;12.00;99.90;;;;;;5014467;28;20965;-76
2022/06/01 00:08:06;;;;;;;3.60;3.20;;;12.00;99.90;;;;;;5013281;28;20484;-80
2022/06/01 00:10:35;;;;;;;5.03;3.77;;;12.00;99.90;;;;;;5011615;28;20533;-78
2022/06/01 00:13:03;;;;;;;3.97;3.60;;;12.00;99.90;;;;;;5004297;28;20881;-77
2022/06/01 00:15:31;;;;;;;4.23;3.80;;;12.10;99.90;;;;;;4992389;28;20498;-78
2022/06/01 00:17:58;;;;;;;5.10;4.00;;;12.10;99.90;;;;;;5001319;28;20531;-76
2022/06/01 00:20:25;;;;;;;6.43;4.43;;;12.10;99.90;;;;;;5000533;28;20469;-76
2022/06/01 00:22:52;;;;;;;4.70;4.20;;;12.10;99.90;;;;;;4998578;28;20455;-76
2022/06/01 00:25:19;;;;;;;5.77;3.83;;;12.20;99.90;;;;;;5003296;28;20466;-77
2022/06/01 00:27:47;;;;;;;4.33;3.90;;;12.20;99.90;;;;;;5005794;28;20974;-78
2022/06/01 00:30:16;;;;;;;7.13;4.20;;;12.20;99.90;;;;;;4998195;28;20460;-76
2022/06/01 00:32:44;;;;;;;4.63;4.23;;;12.10;99.90;;;;;;4999540;28;20519;-76
2022/06/01 00:35:14;;;;;;;5.07;4.33;;;12.20;99.90;;;;;;5011974;28;20542;-77
2022/06/01 00:37:41;;;;;;;4.70;4.20;;;12.20;99.90;;;;;;5012323;28;20459;-77
2022/06/01 00:40:10;;;;;;;5.03;4.63;;;12.20;99.90;;;;;;4994192;28;20458;-77
2022/06/01 00:42:39;;;;;;;6.07;4.57;;;12.20;99.90;;;;;;4991994;28;20477;-78
2022/06/01 00:45:10;;;;;;;5.70;5.20;;;12.20;99.90;;;;;;4992560;28;20896;-76
2022/06/01 00:47:37;;;;;;;4.97;4.53;;;12.30;99.90;;;;;;4992549;28;20827;-76
2022/06/01 00:50:13;;;;;;;5.80;5.20;;;12.20;99.90;;;;;;4993669;28;20449;-77
2022/06/01 00:52:45;;;;;;;5.60;5.10;;;12.30;99.90;;;;;;4976143;28;20493;-77
2022/06/01 00:55:17;;;;;;;6.57;4.93;;;12.20;99.90;;;;;;4977572;28;20457;-76
2022/06/01 00:57:47;;;;;;;6.40;5.80;;;12.30;99.90;;;;;;4977285;28;20453;-77
2022/06/01 01:00:20;;;;;;;6.17;5.53;;;12.20;99.90;;;;;;4977219;28;20547;-78
2022/06/01 01:02:48;;;;;;;8.30;5.53;;;12.10;99.90;;;;;;4976354;28;20451;-76
2022/06/01 01:05:17;;;;;;;5.80;5.13;;;12.10;99.90;;;;;;4985781;28;20453;-76
2022/06/01 01:07:45;;;;;;;5.67;5.07;;;12.00;99.90;;;;;;5006281;28;20501;-78
2022/06/01 01:10:14;;;;;;;5.63;5.13;;;11.90;99.90;;;;;;4996312;28;20551;-76
2022/06/01 01:13:01;;;;;;;5.97;5.37;;;11.90;99.90;;;;;;5002134;28;20495;-77
2022/06/01 01:15:34;;;;;;;5.60;5.10;;;11.80;99.90;;;;;;5016032;28;20462;-76
2022/06/01 01:18:06;;;;;;;5.63;5.13;;;11.70;99.90;;;;;;5009744;28;20872;-77
2022/06/01 01:20:35;;;;;;;6.87;5.80;;;11.60;99.90;;;;;;5006077;28;20969;-78
2022/06/01 01:23:12;;;;;;;6.20;5.50;;;11.50;99.90;;;;;;5017561;28;20454;-79
2022/06/01 01:25:40;;;;;;;6.30;5.70;;;11.50;99.90;;;;;;4998762;28;20457;-79
2022/06/01 01:28:09;;;;;;;7.57;5.90;;;11.50;99.90;;;;;;4997393;28;20454;-78
2022/06/01 01:30:49;;;;;;;5.90;5.30;;;11.40;99.90;;;;;;4995821;28;20913;-77
2022/06/01 01:33:19;;;;;;;7.63;6.30;;;11.50;99.90;;;;;;4996298;28;20486;-77
2022/06/01 01:35:48;;;;;;;6.47;5.90;;;11.40;99.90;;;;;;4996572;28;20451;-77
2022/06/01 01:38:25;;;;;;;7.03;6.33;;;11.40;99.90;;;;;;4996056;28;20446;-78
2022/06/01 01:41:07;;;;;;;6.90;6.30;;;11.40;99.90;;;;;;4995424;28;20481;-77
2022/06/01 01:43:41;;;;;;;8.10;7.30;;;11.40;99.90;;;;;;4995867;28;20508;-77
2022/06/01 01:46:08;;;;;;;8.53;7.63;;;11.30;99.90;;;;;;4995767;28;20481;-77
2022/06/01 01:48:37;;;;;;;8.07;6.93;;;11.20;99.90;;;;;;4995963;28;20451;-77
2022/06/01 01:51:05;;;;;;;9.53;7.60;;;11.20;99.90;;;;;;4994524;28;20482;-78
2022/06/01 01:53:33;;;;;;;8.17;6.67;;;11.20;99.90;;;;;;4996220;28;20491;-76
2022/06/01 01:56:13;;;;;;;8.03;6.63;;;11.10;99.90;;;;;;4995855;28;20501;-78
2022/06/01 01:58:49;;;;;;;7.20;6.50;;;11.10;99.90;;;;;;4995580;28;20453;-77
2022/06/01 02:01:22;;;;;;;8.87;7.97;;;11.10;99.90;;;;;;4993216;28;20477;-78
2022/06/01 02:03:56;;;;;;;8.20;6.97;;;11.10;99.90;;;;;;4995659;28;20449;-77
2022/06/01 02:06:28;;;;;;;7.90;6.80;;;11.10;99.90;;;;;;4995696;28;20504;-77
2022/06/01 02:09:00;;;;;;;8.57;7.70;;;11.00;99.90;;;;;;5008985;28;20598;-76
2022/06/01 02:14:23;;;;;;;9.80;8.80;;;10.90;99.90;;;;;;5014649;28;21198;-75
2022/06/01 02:16:54;;;;;;;12.57;10.20;;;10.90;99.90;;;;;;5014714;28;20459;-77
2022/06/01 02:19:24;;;;;;;11.00;9.20;;;10.70;99.90;;;;;;4998615;28;20463;-78
2022/06/01 02:21:51;;;;;;;8.87;8.07;;;10.70;99.90;;;;;;5013371;28;20480;-76
2022/06/01 02:24:18;;;;;;;10.33;8.20;;;10.80;99.90;;;;;;5015697;28;20463;-78
2022/06/01 02:26:49;;;;;;;9.80;8.80;;;10.80;99.90;;;;;;5013207;28;20457;-78
2022/06/01 02:29:20;;;;;;;9.23;8.30;;;10.80;99.90;;;;;;4998894;28;20457;-78
2022/06/01 02:31:48;;;;;;;10.80;9.70;;;10.70;99.90;;;;;;5001307;28;20467;-78
2022/06/01 02:34:16;;;;;;;9.70;8.80;;;10.70;99.90;;;;;;5014331;28;21001;-78
2022/06/01 02:36:44;;;;;;;10.17;9.27;;;10.70;99.90;;;;;;5014425;28;20829;-79
2022/06/01 02:39:13;;;;;;;9.60;8.70;;;10.70;99.90;;;;;;5014657;28;20476;-77
2022/06/01 02:44:25;;;;;;;9.60;8.70;;;10.60;99.90;;;;;;5014521;28;20522;-78
2022/06/01 02:46:53;;;;;;;12.27;8.67;;;10.60;99.90;;;;;;5014356;28;20485;-78
2022/06/01 02:49:19;;;;;;;9.83;8.37;;;10.60;99.90;;;;;;5014277;28;20489;-77
2022/06/01 02:51:47;;;;;;;9.57;7.90;;;10.60;99.90;;;;;;5014000;28;20481;-80
2022/06/01 02:54:14;;;;;;;10.00;9.00;;;10.60;99.90;;;;;;5001841;28;20486;-80
2022/06/01 02:56:41;;;;;;;10.23;9.20;;;10.50;99.90;;;;;;4995097;28;20460;-78
2022/06/01 02:59:08;;;;;;;10.00;9.00;;;10.50;99.90;;;;;;4995590;28;20456;-79
2022/06/01 03:01:37;;;;;;;13.23;11.10;;;10.40;99.90;;;;;;4997795;28;20876;-78
2022/06/01 03:04:05;;;;;;;10.70;9.60;;;10.50;99.90;;;;;;4996898;28;20503;-78
2022/06/01 03:06:32;;;;;;;9.00;7.60;;;10.40;99.90;;;;;;4997482;28;20458;-78
2022/06/01 03:08:59;;;;;;;9.80;8.53;;;10.40;99.90;;;;;;5005160;28;20462;-79
2022/06/01 03:11:26;;;;;;;11.27;9.73;;;10.40;99.90;;;;;;5018462;28;20477;-80
2022/06/01 03:13:53;;;;;;;11.87;9.70;;;10.40;99.90;;;;;;5011803;28;20488;-79
2022/06/01 03:16:20;;;;;;;9.40;8.37;;;10.50;99.90;;;;;;4996652;28;20464;-79
2022/06/01 03:18:48;;;;;;;9.77;8.77;;;10.40;99.90;;;;;;5015145;28;20920;-79
2022/06/01 03:21:15;;;;;;;11.20;10.00;;;10.40;99.90;;;;;;5015409;28;20834;-78
2022/06/01 03:23:41;;;;;;;10.40;9.30;;;10.40;99.90;;;;;;5016079;28;20459;-80
2022/06/01 03:26:08;;;;;;;11.20;10.07;;;10.40;99.90;;;;;;5016238;28;21042;-79
2022/06/01 03:28:35;;;;;;;10.43;9.43;;;10.50;99.90;;;;;;5005229;28;20469;-78
2022/06/01 03:31:02;;;;;;;10.90;9.80;;;10.50;99.90;;;;;;4996332;28;20479;-80
2022/06/01 03:33:29;;;;;;;11.63;10.20;;;10.50;99.90;;;;;;5011442;28;20555;-78
2022/06/01 03:35:57;;;;;;;10.27;9.27;;;10.60;99.90;;;;;;4996093;28;20459;-78
2022/06/01 03:38:24;;;;;;;11.73;10.10;;;10.60;99.90;;;;;;4987441;28;20465;-77
2022/06/01 03:40:50;;;;;;;12.70;11.40;;;10.60;99.90;;;;;;4994849;28;20480;-80
2022/06/01 03:43:19;;;;;;;14.23;9.87;;;10.60;99.90;;;;;;5009891;28;20471;-77
2022/06/01 03:45:59;;;;;;;12.13;10.60;;;10.60;99.90;;;;;;4982363;28;20458;-78
2022/06/01 03:48:28;;;;;;;13.03;11.73;;;10.70;99.90;;;;;;5014600;28;20463;-77
2022/06/01 03:50:57;;;;;;;12.13;10.93;;;10.70;99.90;;;;;;5012525;28;20473;-78
2022/06/01 03:53:24;;;;;;;11.40;10.23;;;10.60;99.90;;;;;;5005236;28;20492;-78
2022/06/01 03:55:53;;;;;;;12.10;10.87;;;10.70;99.90;;;;;;5003385;28;20833;-78
2022/06/01 03:58:24;;;;;;;14.63;12.43;;;10.70;99.90;;;;;;5014353;28;20457;-78
2022/06/01 04:00:51;;;;;;;13.97;11.80;;;10.80;99.90;;;;;;5013588;28;20515;-79
2022/06/01 04:03:19;;;;;;;13.50;12.10;;;10.90;99.90;;;;;;5007091;28;20460;-77
2022/06/01 04:05:46;;;;;;;12.33;11.13;;;10.80;99.90;;;;;;4995380;28;20464;-80
2022/06/01 04:08:14;;;;;;;15.07;13.33;;;10.80;99.90;;;;;;4994832;28;20464;-77
2022/06/01 04:10:44;;;;;;;13.23;11.77;;;10.80;99.90;;;;;;4997343;28;20482;-79
2022/06/01 04:13:11;;;;;;;15.93;13.90;;;10.90;99.90;;;;;;5011161;28;20960;-78
2022/06/01 04:15:38;;;;;;;14.40;12.50;;;10.90;99.90;;;;;;5013386;28;20485;-79
2022/06/01 04:18:05;;;;;;;13.80;12.40;;;10.90;99.90;;;;;;4998355;28;20455;-78
2022/06/01 04:20:31;;;;;;;16.83;13.80;;;10.90;99.90;;;;;;4994139;28;20962;-77
2022/06/01 04:23:00;;;;;;;14.33;12.80;;;10.90;99.90;;;;;;4994160;28;20461;-77
2022/06/01 04:25:30;;;;;;;14.10;12.37;;;11.00;99.90;;;;;;5010192;28;20514;-78
2022/06/01 04:27:56;;;;;;;15.63;13.23;;;11.00;99.90;;;;;;5012675;28;20465;-78
2022/06/01 04:30:23;;;;;;;18.20;12.60;;;11.10;99.90;;;;;;4993896;28;20905;-78
2022/06/01 04:32:52;;;;;;;13.07;11.77;;;11.10;99.90;;;;;;4994702;28;20455;-79
2022/06/01 04:35:21;;;;;;;16.67;13.07;;;11.10;99.90;;;;;;4997247;28;20918;-79
2022/06/01 04:37:48;;;;;;;13.53;12.13;;;11.20;99.90;;;;;;4992959;28;20464;-77
2022/06/01 04:40:19;;;;;;;14.17;12.73;;;11.20;99.90;;;;;;4993676;28;20838;-78
2022/06/01 04:42:47;;;;;;;15.43;13.67;;;11.20;99.90;;;;;;4992990;28;20461;-79
2022/06/01 04:45:15;;;;;;;15.00;13.40;;;11.20;99.90;;;;;;4999527;28;21031;-81
2022/06/01 04:47:42;;;;;;;17.10;13.73;;;11.30;99.90;;;;;;4996696;28;20538;-82
2022/06/01 04:50:10;;;;;;;13.60;12.20;;;11.30;99.90;;;;;;4996325;28;20845;-81
2022/06/01 04:52:37;;;;;;;12.83;10.50;;;11.40;99.90;;;;;;4994888;28;20552;-81
2022/06/01 04:55:07;;;;;;;16.37;12.73;;;11.30;99.90;;;;;;4999542;28;20493;-79
2022/06/01 04:57:33;;;;;;;12.47;11.23;;;11.50;99.90;;;;;;4998162;28;20486;-82
2022/06/01 05:00:02;;;;;;;10.87;9.77;;;11.50;99.90;;;;;;4997450;28;20491;-82
2022/06/01 05:02:29;;;;;;;13.67;9.93;;;11.50;99.90;;;;;;4988091;28;20484;-80
2022/06/01 05:04:56;;;;;;;13.57;12.23;;;11.60;99.90;;;;;;4993178;28;20455;-81
2022/06/01 05:07:23;;;;;;;15.70;12.27;;;11.60;99.90;;;;;;4993236;28;20455;-82
2022/06/01 05:09:50;;;;;;;13.37;10.97;;;11.60;99.90;;;;;;5004218;28;20454;-82
2022/06/01 05:12:16;;;;;;;13.43;11.27;;;11.70;99.90;;;;;;5012481;28;20457;-82
2022/06/01 05:14:43;;;;;;;14.83;10.90;;;11.70;99.90;;;;;;5013525;28;20485;-81
2022/06/01 05:17:11;;;;;;;13.93;11.33;;;11.70;99.90;;;;;;5004663;28;20451;-81
2022/06/01 05:19:38;;;;;;;13.90;11.43;;;11.80;99.90;;;;;;5009016;28;20456;-80
2022/06/01 05:22:05;;;;;;;13.77;11.53;;;11.80;99.90;;;;;;4993998;28;20581;-81
2022/06/01 05:24:32;;;;;;;12.20;10.77;;;11.90;99.90;;;;;;5000638;28;20848;-79
2022/06/01 05:26:59;;;;;;;13.73;10.40;;;12.00;99.90;;;;;;4990206;28;20478;-80
2022/06/01 05:29:26;;;;;;;10.97;7.67;;;12.00;99.90;;;;;;5001913;28;20791;-81
2022/06/01 05:31:54;;;;;;;9.53;8.20;;;12.70;99.90;;;;;;5008981;28;20525;-81
2022/06/01 05:34:22;;;;;;;10.97;9.80;;;13.10;99.90;;;;;;4997701;28;20579;-81
2022/06/01 05:36:49;;;;;;;12.80;9.77;;;13.10;99.90;;;;;;5003661;28;20464;-82
2022/06/01 05:39:16;;;;;;;10.87;8.60;;;13.30;99.90;;;;;;5015497;28;20463;-82
2022/06/01 05:41:42;;;;;;;13.67;12.07;;;13.30;99.90;;;;;;5015591;28;20475;-82
2022/06/01 05:44:09;;;;;;;12.90;11.37;;;13.20;99.90;;;;;;5012847;28;20467;-82
2022/06/01 05:46:36;;;;;;;12.93;10.63;;;13.10;99.90;;;;;;4996051;28;20462;-83
2022/06/01 05:49:03;;;;;;;12.13;10.93;;;13.20;99.90;;;;;;5007656;28;20458;-81
2022/06/01 05:51:34;;;;;;;13.10;9.60;;;13.20;99.90;;;;;;5000481;28;20925;-83
2022/06/01 05:54:01;;;;;;;12.67;11.43;;;13.50;99.90;;;;;;5002036;28;20483;-81
2022/06/01 05:56:28;;;;;;;18.13;11.60;;;13.40;99.90;;;;;;5003236;28;20455;-81
2022/06/01 05:58:54;;;;;;;13.43;9.60;;;13.50;99.90;;;;;;5003857;28;20460;-80
2022/06/01 06:01:22;;;;;;;11.63;9.30;;;13.90;99.90;;;;;;4996667;28;20479;-81
2022/06/01 06:03:49;;;;;;;11.17;9.10;;;14.00;99.90;;;;;;5005025;28;20473;-81
2022/06/01 06:06:16;;;;;;;12.60;10.43;;;14.10;99.90;;;;;;5014285;28;20504;-80
2022/06/01 06:08:48;;;;;;;11.63;10.43;;;14.30;99.90;;;;;;5019276;28;20483;-81
2022/06/01 06:11:16;;;;;;;13.90;11.67;;;14.30;99.90;;;;;;5017949;28;20483;-81
2022/06/01 06:13:44;;;;;;;14.13;11.90;;;14.20;99.90;;;;;;5011871;28;20463;-80
2022/06/01 06:16:12;;;;;;;11.27;10.00;;;14.00;99.90;;;;;;4999860;28;20457;-81
2022/06/01 06:18:39;;;;;;;12.07;9.97;;;14.10;99.90;;;;;;4997411;28;20472;-81
2022/06/01 06:21:06;;;;;;;10.67;9.30;;;14.10;99.90;;;;;;4996496;28;20472;-81
2022/06/01 06:23:33;;;;;;;13.70;9.40;;;14.30;99.90;;;;;;4997261;28;20458;-82
2022/06/01 06:26:03;;;;;;;10.17;9.17;;;14.40;99.90;;;;;;4993590;28;20526;-81
2022/06/01 06:28:31;;;;;;;10.63;7.50;;;14.60;99.90;;;;;;5003361;28;20486;-81
2022/06/01 06:30:58;;;;;;;12.57;7.83;;;15.00;99.90;;;;;;5005755;28;20841;-81
2022/06/01 06:33:25;;;;;;;9.57;8.03;;;15.30;99.90;;;;;;5012958;28;20537;-82
2022/06/01 06:36:00;;;;;;;8.57;7.20;;;15.40;99.90;;;;;;5000485;28;20618;-82
2022/06/01 06:38:28;;;;;;;11.93;9.00;;;15.30;99.90;;;;;;4999357;28;20505;-82
2022/06/01 06:40:59;;;;;;;11.37;7.30;;;15.10;99.90;;;;;;4999395;28;20475;-81
2022/06/01 06:43:29;;;;;;;8.43;7.57;;;15.10;99.90;;;;;;5004327;28;20462;-82
2022/06/01 06:45:58;;;;;;;13.67;8.50;;;15.20;99.90;;;;;;5006409;28;20954;-82
2022/06/01 06:48:26;;;;;;;11.23;7.50;;;15.40;99.90;;;;;;5005172;28;20459;-82
2022/06/01 06:50:53;;;;;;;11.27;8.53;;;15.60;99.90;;;;;;5000948;28;20560;-82
2022/06/01 06:53:19;;;;;;;9.07;7.63;;;15.60;99.90;;;;;;4997429;28;20454;-82
2022/06/01 06:55:47;;;;;;;10.73;8.37;;;15.40;99.90;;;;;;4995762;28;20566;-83
2022/06/01 06:58:13;;;;;;;8.40;6.90;;;15.50;99.90;;;;;;5003578;28;20511;-82
2022/06/01 07:00:42;;;;;;;8.67;7.77;;;15.70;99.90;;;;;;5001455;28;20494;-83
2022/06/01 07:03:09;;;;;;;8.57;7.17;;;15.70;99.90;;;;;;4999961;28;20519;-81
2022/06/01 07:08:20;;;;;;;9.60;7.53;;;15.70;99.90;;;;;;5001089;28;20495;-82
2022/06/01 07:10:47;;;;;;;9.60;5.93;;;15.80;99.90;;;;;;5002813;28;20890;-80
2022/06/01 07:13:14;;;;;;;7.93;6.00;;;15.70;99.90;;;;;;5004685;28;20462;-82
2022/06/01 07:15:43;;;;;;;10.03;6.53;;;15.70;99.90;;;;;;5004258;28;20509;-82
2022/06/01 07:18:10;;;;;;;7.20;6.00;;;15.80;99.90;;;;;;5006273;28;20756;-81
2022/06/01 07:20:39;;;;;;;6.80;4.27;;;15.80;99.90;;;;;;5001478;28;20482;-82
2022/06/01 07:23:06;;;;;;;9.63;5.17;;;16.00;99.90;;;;;;5004571;28;20473;-82
2022/06/01 07:25:35;;;;;;;7.27;4.53;;;15.90;99.90;;;;;;5000716;28;20515;-81
2022/06/01 07:28:02;;;;;;;5.03;3.80;;;15.80;99.90;;;;;;4996777;28;21035;-82
2022/06/01 07:30:29;;;;;;;5.30;3.40;;;15.90;99.90;;;;;;5000958;28;20457;-80
2022/06/01 07:32:57;;;;;;;6.63;4.30;;;16.10;99.90;;;;;;5004063;28;20457;-81
2022/06/01 07:35:24;;;;;;;7.83;3.73;;;16.20;99.90;;;;;;4986259;28;20491;-82
2022/06/01 07:43:22;;;;;;;5.33;3.40;;;15.80;99.90;;;;;;4991972;28;20443;-81
2022/06/01 07:45:50;;;;;;;6.67;3.47;;;15.80;99.90;;;;;;4997604;28;20451;-81
2022/06/01 07:48:18;;;;;;;4.50;2.90;;;15.80;99.90;;;;;;4997242;28;20465;-82
2022/06/01 07:50:45;;;;;;;4.20;3.00;;;15.70;99.90;;;;;;4997509;28;20474;-84
2022/06/01 07:53:12;;;;;;;5.43;3.00;;;16.10;99.90;;;;;;4994035;28;20879;-83
2022/06/01 07:55:41;;;;;;;5.60;3.57;;;16.30;99.90;;;;;;4999369;28;20490;-83
2022/06/01 07:58:08;;;;;;;6.33;3.17;;;16.00;99.90;;;;;;5004466;28;20501;-82
2022/06/01 08:00:35;;;;;;;4.50;3.80;;;16.10;99.90;;;;;;4996164;28;20464;-84
2022/06/01 08:03:03;;;;;;;5.07;4.10;;;16.00;99.90;;;;;;4995821;28;20462;-82
2022/06/01 08:05:33;;;;;;;5.50;3.23;;;16.20;99.90;;;;;;4996455;28;20891;-81
2022/06/01 08:08:00;;;;;;;4.27;3.87;;;16.20;99.90;;;;;;4997084;28;20466;-81
2022/06/01 08:10:26;;;;;;;7.20;3.90;;;16.30;99.90;;;;;;4994907;28;20956;-82
2022/06/01 08:13:09;;;;;;;6.47;3.60;;;16.60;99.90;;;;;;4978026;28;20457;-81
2022/06/01 08:15:38;;;;;;;4.97;3.47;;;17.00;99.90;;;;;;4979277;28;20537;-83
2022/06/01 08:18:05;;;;;;;5.10;3.53;;;17.10;99.90;;;;;;4996772;28;20975;-82
2022/06/01 08:20:33;;;;;;;5.93;3.43;;;17.10;99.90;;;;;;4993413;28;20546;-81
2022/06/01 08:23:01;;;;;;;5.33;4.03;;;17.30;99.90;;;;;;4994964;28;20541;-81
2022/06/01 08:25:29;;;;;;;10.00;3.80;;;17.40;99.90;;;;;;4999186;28;20450;-82
2022/06/01 08:27:55;;;;;;;3.63;3.00;;;17.70;99.90;;;;;;4997374;28;20509;-83
2022/06/01 08:30:24;;;;;;;4.47;3.93;;;18.10;99.90;;;;;;4997386;28;20464;-82
2022/06/01 08:32:53;;;;;;;6.33;3.20;;;17.80;99.90;;;;;;5019264;28;20464;-80
2022/06/01 08:35:22;;;;;;;5.13;3.40;;;17.80;99.90;;;;;;5022255;28;20488;-83
2022/06/01 08:37:50;;;;;;;4.27;3.10;;;18.10;99.90;;;;;;5020387;28;20441;-83
2022/06/01 08:40:20;;;;;;;9.03;3.00;;;18.00;99.90;;;;;;5009743;28;20462;-81
2022/06/01 08:42:53;;;;;;;5.80;2.80;;;17.70;99.90;;;;;;4987648;28;20970;-82
2022/06/01 08:45:22;;;;;;;6.80;3.33;;;17.50;99.90;;;;;;5003411;28;20470;-83
2022/06/01 08:47:50;;;;;;;4.60;3.30;;;17.40;99.90;;;;;;5009955;28;20454;-83
2022/06/01 08:50:22;;;;;;;4.43;3.10;;;17.40;99.90;;;;;;4986448;28;20461;-85
2022/06/01 08:52:50;;;;;;;4.40;3.10;;;17.40;99.90;;;;;;4997217;28;20458;-81
2022/06/01 08:55:17;;;;;;;4.60;3.30;;;17.70;99.90;;;;;;4995784;28;20483;-83
2022/06/01 08:57:49;;;;;;;6.50;3.33;;;17.40;99.90;;;;;;4989809;28;20450;-82
2022/06/01 09:00:19;;;;;;;5.97;2.70;;;17.70;99.90;;;;;;4996569;28;20450;-81
2022/06/01 09:02:54;;;;;;;6.23;3.37;;;17.60;99.90;;;;;;4995796;28;20447;-81
2022/06/01 09:05:30;;;;;;;4.33;2.83;;;17.70;99.90;;;;;;4996393;28;20457;-81
2022/06/01 09:08:07;;;;;;;7.03;2.33;;;17.80;99.90;;;;;;4997194;28;20482;-84
2022/06/01 09:10:42;;;;;;;7.37;3.20;;;17.80;99.90;;;;;;4997879;28;20540;-81
2022/06/01 09:13:12;;;;;;;3.93;2.63;;;17.90;99.90;;;;;;4994724;28;20453;-82
2022/06/01 09:15:45;;;;;;;6.83;2.83;;;17.70;99.90;;;;;;5002380;28;20489;-83
2022/06/01 09:18:13;;;;;;;5.20;3.10;;;17.70;99.90;;;;;;4998512;28;20453;-82
2022/06/01 09:23:26;;;;;;;5.03;3.00;;;18.40;99.90;;;;;;5017306;28;20432;-81
2022/06/01 09:25:55;;;;;;;3.77;2.63;;;18.00;99.90;;;;;;5016737;28;20474;-82
2022/06/01 09:28:24;;;;;;;3.80;1.90;;;18.00;99.90;;;;;;5017532;28;20460;-79
2022/06/01 09:31:02;;;;;;;4.80;2.60;;;18.20;99.90;;;;;;5009846;28;20488;-81
2022/06/01 09:33:31;;;;;;;5.83;2.60;;;18.10;99.90;;;;;;4994974;28;20473;-82
2022/06/01 09:36:03;;;;;;;3.47;2.37;;;18.00;99.90;;;;;;4991990;28;20490;-80
2022/06/01 09:38:42;;;;;;;3.77;2.30;;;17.70;99.90;;;;;;4994652;28;20465;-79
2022/06/01 09:41:11;;;;;;;3.57;2.10;;;17.50;99.90;;;;;;4997664;28;20481;-80
2022/06/01 09:43:40;;;;;;;3.57;2.07;;;17.40;99.90;;;;;;4995281;28;20454;-82
2022/06/01 09:46:09;;;;;;;3.80;1.90;;;17.40;99.90;;;;;;4982416;28;20450;-80
2022/06/01 09:48:37;;;;;;;3.80;1.60;;;17.40;99.90;;;;;;4996039;28;20799;-79
2022/06/01 09:51:13;;;;;;;4.43;1.90;;;17.30;99.90;;;;;;4997866;28;20510;-81
2022/06/01 09:53:44;;;;;;;5.07;2.23;;;17.40;99.90;;;;;;4997923;28;20871;-81
2022/06/01 09:56:12;;;;;;;3.77;2.00;;;17.40;99.90;;;;;;4997102;28;20495;-81
2022/06/01 10:07:00;;;;;;;3.83;2.13;;;19.70;99.90;;;;;;4999537;28;20414;-80
2022/06/01 10:09:30;;;;;;;5.20;2.40;;;20.00;99.90;;;;;;4999228;28;21094;-82
2022/06/01 10:11:58;;;;;;;5.10;2.33;;;20.10;99.90;;;;;;4992507;28;20468;-81
2022/06/01 10:14:30;;;;;;;3.17;1.80;;;20.00;99.90;;;;;;4994442;28;20490;-81
2022/06/01 10:17:21;;;;;;;3.00;1.87;;;20.00;99.90;;;;;;4997467;28;20590;-80
2022/06/01 10:19:54;;;;;;;3.67;1.93;;;19.90;99.90;;;;;;4994245;28;20470;-77
2022/06/01 10:22:31;;;;;;;5.00;2.10;;;20.40;99.90;;;;;;4977572;28;20519;-82
2022/06/01 10:25:06;;;;;;;3.50;1.80;;;21.10;99.90;;;;;;4979339;28;20551;-81
2022/06/01 10:27:39;;;;;;;2.70;1.43;;;21.20;99.90;;;;;;4997648;28;20450;-80
2022/06/01 10:30:15;;;;;;;3.03;1.43;;;21.90;99.90;;;;;;4991640;28;20830;-78
2022/06/01 10:32:47;;;;;;;3.10;2.03;;;22.30;99.90;;;;;;4974626;28;20506;-79
2022/06/01 10:35:31;;;;;;;3.47;1.57;;;22.60;99.90;;;;;;4975004;28;21011;-79
2022/06/01 10:38:12;;;;;;;4.13;1.77;;;22.90;99.90;;;;;;4980729;28;20454;-78
2022/06/01 10:40:45;;;;;;;3.53;1.80;;;22.60;99.90;;;;;;4990979;28;20486;-77
2022/06/01 10:43:32;;;;;;;4.80;2.27;;;21.70;99.90;;;;;;4995543;28;20557;-78
2022/06/01 10:46:04;;;;;;;7.20;2.20;;;21.10;99.90;;;;;;4997079;28;20450;-80
2022/06/01 10:48:35;;;;;;;3.20;1.80;;;20.50;99.90;;;;;;4993755;28;21032;-78
2022/06/01 10:51:15;;;;;;;3.90;1.70;;;20.00;99.90;;;;;;4995523;28;20482;-77
2022/06/01 10:53:52;;;;;;;3.53;1.80;;;19.70;99.90;;;;;;4994440;28;20458;-78
2022/06/01 10:56:23;;;;;;;3.33;1.70;;;19.00;99.90;;;;;;4997582;28;20502;-78
2022/06/01 10:58:51;;;;;;;4.37;1.70;;;18.70;99.90;;;;;;4990712;28;20462;-81
2022/06/01 11:01:33;;;;;;;3.97;1.90;;;18.30;99.90;;;;;;4993937;28;20850;-81
2022/06/01 11:04:25;;;;;;;3.20;1.87;;;18.30;99.90;;;;;;4998166;28;20455;-79
2022/06/01 11:07:11;;;;;;;5.00;2.53;;;18.00;99.90;;;;;;4995892;28;20443;-82
2022/06/01 11:09:46;;;;;;;4.70;2.30;;;18.10;99.90;;;;;;4991517;28;20455;-81
2022/06/01 11:12:28;;;;;;;3.00;1.40;;;18.30;99.90;;;;;;4994561;28;20464;-77
2022/06/01 11:15:07;;;;;;;3.43;1.90;;;18.50;99.90;;;;;;4997213;28;20463;-77
2022/06/01 11:17:43;;;;;;;3.93;2.23;;;18.90;99.90;;;;;;4998592;28;20450;-79
2022/06/01 11:20:22;;;;;;;3.40;1.70;;;19.50;99.90;;;;;;4999373;28;20465;-82
2022/06/01 11:22:59;;;;;;;4.20;2.33;;;19.90;99.90;;;;;;4999668;28;20453;-81
2022/06/01 11:25:35;;;;;;;3.30;1.97;;;19.80;99.90;;;;;;4999573;28;20846;-80
2022/06/01 11:28:15;;;;;;;4.80;2.07;;;19.40;99.90;;;;;;4996854;28;20456;-81
2022/06/01 11:30:53;;;;;;;6.27;1.90;;;19.20;99.90;;;;;;5000470;28;20472;-77
2022/06/01 11:33:28;;;;;;;2.63;1.90;;;18.90;99.90;;;;;;5001540;28;20447;-77
2022/06/01 11:36:01;;;;;;;6.43;2.40;;;18.70;99.90;;;;;;4999834;28;20494;-78
2022/06/01 11:38:46;;;;;;;4.53;2.03;;;19.00;99.90;;;;;;4995078;28;20549;-77
2022/06/01 11:41:21;;;;;;;3.20;1.63;;;18.90;99.90;;;;;;4998080;28;20485;-78
2022/06/01 11:43:58;;;;;;;3.97;1.80;;;19.20;99.90;;;;;;4997959;28;20501;-77
2022/06/01 11:46:40;;;;;;;3.80;1.83;;;19.70;99.90;;;;;;4997070;28;20476;-80
2022/06/01 11:49:12;;;;;;;4.50;1.63;;;20.40;99.90;;;;;;4983563;28;20871;-79
2022/06/01 11:51:49;;;;;;;2.47;1.27;;;20.80;99.90;;;;;;4994055;28;20470;-77
2022/06/01 11:54:27;;;;;;;4.53;1.77;;;21.20;99.90;;;;;;5012656;28;20444;-79
2022/06/01 11:57:00;;;;;;;3.00;1.37;;;21.00;99.90;;;;;;5011283;28;20466;-78
2022/06/01 11:59:45;;;;;;;4.33;1.50;;;20.90;99.90;;;;;;5004929;28;20579;-79
2022/06/01 12:02:41;;;;;;;4.70;1.90;;;20.40;99.90;;;;;;5005429;28;20458;-79
2022/06/01 12:05:12;;;;;;;4.93;1.70;;;19.40;99.90;;;;;;4998644;28;20443;-77
2022/06/01 12:07:44;;;;;;;4.53;2.07;;;19.10;99.90;;;;;;5001162;28;20455;-76
2022/06/01 12:10:24;;;;;;;5.33;1.60;;;18.90;99.90;;;;;;5002240;28;20458;-75
2022/06/01 12:13:11;;;;;;;4.87;1.83;;;18.80;99.90;;;;;;5005692;28;20464;-73
2022/06/01 12:16:04;;;;;;;4.00;1.50;;;18.50;99.90;;;;;;5015291;28;20461;-76
2022/06/01 12:18:33;;;;;;;3.17;1.40;;;18.60;99.90;;;;;;5011994;28;20436;-78
2022/06/01 12:21:33;;;;;;;3.93;1.53;;;18.70;99.90;;;;;;5006150;28;20479;-79
2022/06/01 12:30:04;;;;;;;2.70;1.20;;;22.50;99.90;;;;;;5010950;28;20411;-80
2022/06/01 12:33:07;;;;;;;3.10;1.07;;;24.10;99.90;;;;;;5005251;28;20479;-79
2022/06/01 12:35:41;;;;;;;3.17;1.20;;;24.50;99.90;;;;;;5007823;28;20457;-78
2022/06/01 12:38:10;;;;;;;3.00;1.10;;;25.30;99.90;;;;;;5029354;28;20425;-80
2022/06/01 12:40:37;;;;;;;2.20;1.27;;;26.30;97.40;;;;;;5026320;28;21150;-81
2022/06/01 12:43:12;;;;;;;3.10;1.10;;;26.50;90.50;;;;;;5029648;28;20460;-81
2022/06/01 12:45:41;;;;;;;3.10;1.17;;;25.30;91.30;;;;;;5014591;28;20464;-79
2022/06/01 12:48:14;;;;;;;3.10;1.50;;;23.90;90.70;;;;;;5012788;28;20435;-79
2022/06/01 12:50:50;;;;;;;2.50;1.30;;;23.70;92.30;;;;;;5001842;28;20499;-79
2022/06/01 12:53:19;;;;;;;2.90;1.20;;;23.20;92.00;;;;;;5010455;28;20524;-79
2022/06/01 12:55:48;;;;;;;3.70;1.70;;;22.90;93.50;;;;;;4995598;28;20457;-80
2022/06/01 12:58:20;;;;;;;3.73;1.70;;;21.80;93.30;;;;;;5017551;28;20450;-78
2022/06/01 13:00:55;;;;;;;3.70;2.00;;;20.90;95.40;;;;;;5013416;28;20466;-79
2022/06/01 13:03:29;;;;;;;3.37;1.70;;;20.40;97.60;;;;;;5012929;28;20473;-79
2022/06/01 13:05:59;;;;;;;4.23;1.87;;;19.70;99.90;;;;;;5009466;28;20429;-81
2022/06/01 13:08:28;;;;;;;4.47;2.10;;;19.00;99.90;;;;;;5012580;28;20462;-80
2022/06/01 13:10:56;;;;;;;2.50;1.60;;;18.70;99.90;;;;;;5030688;28;20974;-78
2022/06/01 13:13:28;;;;;;;4.13;2.70;;;18.40;99.90;;;;;;5027663;28;20463;-78
2022/06/01 13:15:58;;;;;;;4.40;2.73;;;18.00;99.90;;;;;;5024567;28;20963;-75
2022/06/01 13:18:31;;;;;;;4.93;2.57;;;17.60;99.90;;;;;;5010565;28;20486;-80
2022/06/01 13:21:05;;;;;;;2.93;1.97;;;17.30;99.90;;;;;;4994606;28;20983;-76
2022/06/01 13:23:41;;;;;;;4.23;1.90;;;17.00;99.90;;;;;;4995019;28;20480;-79
2022/06/01 13:26:13;;;;;;;2.50;1.80;;;17.10;99.90;;;;;;4993895;28;20443;-77
2022/06/01 13:28:40;;;;;;;2.90;1.83;;;17.20;99.90;;;;;;5004972;28;20461;-76